FW9406 Weather Reports


time (UTC)temp
F
wind
direction
speed
knots
gust
knots
rain 1hr
in
rain 24hr
in
rain mn
in
humidity
%
barometer
mb
20260906120621 73 234 0.0 0.0 0.00 0.00 0.00 95 1014.5
20260906120118 73 235 0.0 0.0 0.00 0.00 0.00 96 1014.5
20260906115618 73 234 0.0 0.0 0.00 0.00 0.00 96 1014.5
20260906115114 73 234 0.0 0.0 0.00 0.00 0.00 96 1014.5
20260906114613 73 234 0.0 0.0 0.00 0.00 0.00 96 1014.5
20260906114109 73 235 0.0 0.0 0.00 0.00 0.00 96 1014.2
20260906113608 72 242 0.0 0.0 0.00 0.00 0.00 96 1013.9
20260906113103 72 247 0.0 0.0 0.00 0.00 0.00 96 1014.2
20260906112557 72 234 0.0 0.0 0.00 0.00 0.00 96 1014.2
20260906112055 72 219 0.0 0.0 0.00 0.00 0.00 96 1013.9
20260906111554 72 207 0.0 0.9 0.00 0.00 0.00 95 1013.9
20260906111049 72 204 0.0 0.0 0.00 0.00 0.00 95 1014.2
20260906110548 72 217 0.0 0.0 0.00 0.00 0.00 95 1013.9
20260906110047 73 218 0.0 0.0 0.00 0.00 0.00 94 1013.9
20260906105543 73 215 0.0 0.9 0.00 0.00 0.00 94 1013.9
20260906105040 73 277 0.9 0.9 0.00 0.00 0.00 94 1013.9
20260906104538 73 284 0.9 1.7 0.00 0.00 0.00 93 1013.9
20260906104037 73 255 0.9 0.9 0.00 0.00 0.00 93 1013.9
20260906103536 73 253 0.0 0.9 0.00 0.00 0.00 93 1013.5
20260906103031 73 243 0.0 0.9 0.00 0.00 0.00 93 1013.9
20260906102531 73 245 0.0 0.9 0.00 0.00 0.00 93 1013.9
20260906102026 73 245 0.9 0.9 0.00 0.00 0.00 93 1013.9
20260906101521 73 238 0.9 0.9 0.00 0.00 0.00 93 1013.5
20260906101016 73 252 0.0 0.9 0.00 0.00 0.00 93 1013.5
20260906100511 73 256 0.9 0.9 0.00 0.00 0.00 93 1013.5
20260906100006 73 247 0.0 0.9 0.00 0.00 0.00 93 1013.9
20260906095500 73 260 1.7 2.6 0.00 0.00 0.00 93 1013.9
20260906094956 74 230 1.7 2.6 0.00 0.00 0.00 93 1013.9
20260906094455 74 321 0.9 1.7 0.00 0.00 0.00 93 1013.9
20260906093951 74 247 1.7 2.6 0.00 0.00 0.00 93 1013.9
20260906093448 74 334 1.7 1.7 0.00 0.00 0.00 93 1013.9
20260906092947 74 237 0.0 0.9 0.00 0.00 0.00 94 1013.5
20260906092447 74 236 0.0 0.9 0.00 0.00 0.00 94 1013.5
20260906091942 74 265 1.7 1.7 0.00 0.00 0.00 95 1013.5
20260906091438 74 213 0.0 0.0 0.00 0.00 0.00 95 1013.5
20260906090934 73 202 0.0 0.0 0.00 0.00 0.00 94 1013.5
20260906090429 73 233 0.0 0.0 0.00 0.00 0.00 94 1013.9
20260906085924 73 240 0.0 0.0 0.00 0.00 0.00 94 1013.5
20260906085423 73 210 0.0 0.0 0.00 0.00 0.00 93 1013.5
20260906084922 74 207 0.0 0.0 0.00 0.00 0.00 93 1013.5
20260906084417 74 197 0.0 0.0 0.00 0.00 0.00 93 1013.2
20260906083916 74 219 0.0 0.9 0.00 0.00 0.00 93 1013.2
20260906083412 74 239 0.0 1.7 0.00 0.00 0.00 93 1013.2
20260906082911 74 232 1.7 1.7 0.00 0.00 0.00 94 1013.2
20260906082407 74 243 1.7 1.7 0.00 0.00 0.00 94 1013.2
20260906081903 75 251 0.0 0.0 0.00 0.00 0.00 94 1013.2
20260906081358 75 336 0.9 0.9 0.00 0.00 0.00 94 1013.5
20260906080854 75 304 0.9 1.7 0.00 0.00 0.00 94 1013.2
20260906080350 75 247 0.0 0.0 0.00 0.00 0.00 94 1012.8
20260906075849 75 233 0.0 0.0 0.00 0.00 0.00 94 1012.8
20260906075344 75 245 0.9 1.7 0.00 0.00 0.00 94 1012.8
20260906074840 75 293 1.7 1.7 0.00 0.00 0.00 94 1012.8
20260906074339 75 249 0.0 0.9 0.00 0.00 0.00 94 1012.8
20260906073838 75 279 0.9 1.7 0.00 0.00 0.00 94 1013.2
20260906073333 75 280 1.7 2.6 0.00 0.00 0.00 93 1012.8
20260906072830 75 261 0.9 1.7 0.00 0.00 0.00 93 1012.8
20260906072326 76 234 0.0 0.9 0.00 0.00 0.00 93 1012.8
20260906071821 76 227 0.0 0.9 0.00 0.00 0.00 92 1012.8
20260906071321 76 252 0.0 0.9 0.00 0.00 0.00 92 1012.8
20260906070818 76 235 0.0 0.0 0.00 0.00 0.00 92 1013.2
20260906070314 76 25 0.9 0.9 0.00 0.00 0.00 91 1013.2
20260906065813 76 319 0.9 1.7 0.00 0.00 0.00 91 1013.2
20260906065308 76 273 0.9 1.7 0.00 0.00 0.00 91 1013.2
20260906064804 76 236 0.9 0.9 0.00 0.00 0.00 91 1013.2
20260906064300 77 262 0.9 1.7 0.00 0.00 0.00 91 1013.2
20260906063754 77 247 0.0 1.7 0.00 0.00 0.00 91 1013.5
20260906063250 77 242 0.9 0.9 0.00 0.00 0.00 91 1013.5
20260906062745 77 242 0.0 1.7 0.00 0.00 0.00 91 1013.2
20260906062244 77 240 0.0 1.7 0.00 0.00 0.00 91 1013.5
20260906061740 77 250 0.0 0.0 0.00 0.00 0.00 91 1013.5
20260906061237 77 229 0.0 0.9 0.00 0.00 0.00 91 1013.5
20260906060731 77 261 0.9 0.9 0.00 0.00 0.00 91 1013.9
20260906060229 78 215 0.0 0.9 0.00 0.00 0.00 91 1013.9
20260906055725 78 305 1.7 2.6 0.00 0.00 0.00 90 1013.9
20260906055219 78 226 0.0 0.0 0.00 0.00 0.00 91 1013.5
20260906054715 78 219 0.0 0.0 0.00 0.00 0.00 91 1013.9
20260906054216 78 187 0.0 0.0 0.00 0.00 0.00 91 1014.2
20260906053713 78 235 0.0 2.6 0.00 0.00 0.00 91 1013.9
20260906053208 78 267 0.9 1.7 0.00 0.00 0.00 92 1014.2
20260906052702 78 280 2.6 7.0 0.00 0.00 0.00 93 1014.2
20260906052159 78 279 0.9 5.2 0.00 0.00 0.00 94 1014.5
20260906051655 78 257 1.7 7.0 0.00 0.00 0.00 94 1014.5
20260906051155 78 327 3.5 6.1 0.00 0.00 0.00 94 1014.5
20260906050650 78 325 2.6 5.2 0.00 0.00 0.00 94 1014.5
20260906050145 78 300 2.6 3.5 0.00 0.00 0.00 94 1014.2
20260906045644 78 301 2.6 3.5 0.00 0.00 0.00 94 1014.2
20260906045139 77 238 0.0 0.0 0.00 0.00 0.00 94 1013.9
20260906044635 77 235 0.9 0.9 0.00 0.00 0.00 94 1013.9
20260906044130 78 195 0.0 0.9 0.00 0.00 0.00 94 1013.9
20260906043626 78 180 0.0 0.9 0.00 0.00 0.00 93 1013.9
20260906043121 78 162 0.9 0.9 0.00 0.00 0.00 93 1013.9
20260906042621 78 123 1.7 1.7 0.00 0.00 0.00 93 1013.5
20260906042116 78 191 0.0 0.9 0.00 0.00 0.00 93 1013.5
20260906041612 78 192 0.0 1.7 0.00 0.00 0.00 93 1013.9
20260906041111 78 155 0.0 1.7 0.00 0.00 0.00 93 1013.5
20260906040607 78 147 0.9 1.7 0.00 0.00 0.00 93 1013.5
20260906035557 78 176 0.0 0.0 0.00 0.00 0.00 91 1013.5
20260906035054 79 194 0.0 0.0 0.00 0.00 0.00 90 1013.9
20260906034553 79 199 0.0 0.0 0.00 0.00 0.00 90 1013.9
20260906034048 79 194 0.9 0.9 0.00 0.00 0.00 90 1013.9
20260906033543 79 213 0.9 0.9 0.00 0.00 0.00 89 1014.2
20260906033039 79 285 0.9 1.7 0.00 0.00 0.00 89 1013.9
20260906032536 79 212 0.0 0.0 0.00 0.00 0.00 89 1013.9
20260906032030 80 227 0.9 0.9 0.00 0.00 0.00 88 1013.9
20260906031526 80 236 1.7 1.7 0.00 0.00 0.00 88 1013.9
20260906031021 80 258 1.7 1.7 0.00 0.00 0.00 88 1013.9
20260906030520 80 245 0.0 0.9 0.00 0.00 0.00 88 1013.9
20260906030020 80 211 0.0 0.0 0.00 0.00 0.00 87 1013.5
20260906025520 80 221 0.0 0.0 0.00 0.00 0.00 86 1013.9
20260906025018 80 231 0.0 0.0 0.00 0.00 0.00 86 1013.9
20260906024514 80 231 0.0 0.9 0.00 0.00 0.00 85 1013.9
20260906024013 81 235 0.9 0.9 0.00 0.00 0.00 85 1014.2
20260906023510 81 249 0.9 0.9 0.00 0.00 0.00 85 1014.2
20260906023004 81 234 0.0 0.9 0.00 0.00 0.00 85 1014.2
20260906022500 81 222 0.0 0.0 0.00 0.00 0.00 84 1014.2
20260906021955 81 245 1.7 2.6 0.00 0.00 0.00 84 1014.2
20260906021449 81 235 0.0 0.9 0.00 0.00 0.00 83 1014.2
20260906020944 82 226 0.0 1.7 0.00 0.00 0.00 83 1014.2
20260906020438 82 277 0.9 2.6 0.00 0.00 0.00 82 1014.2
20260906015933 82 223 0.9 0.9 0.00 0.00 0.00 82 1014.2
20260906015432 82 281 1.7 1.7 0.00 0.00 0.00 83 1014.2
20260906014932 82 234 2.6 3.5 0.00 0.00 0.00 83 1014.5
20260906014432 81 234 2.6 7.0 0.00 0.00 0.00 84 1014.5
20260906013928 82 317 6.1 7.0 0.00 0.00 0.00 87 1014.5
20260906013423 82 325 3.5 3.5 0.00 0.00 0.00 87 1014.2
20260906012919 82 252 0.9 2.6 0.00 0.00 0.00 88 1013.9
20260906012419 82 269 2.6 2.6 0.00 0.00 0.00 88 1013.9
20260906011918 82 324 0.9 2.6 0.00 0.00 0.00 88 1013.9
20260906011414 82 294 0.9 1.7 0.00 0.00 0.00 88 1013.5
20260906010909 82 255 0.0 0.9 0.00 0.00 0.00 87 1013.5
20260906010404 82 241 0.0 0.0 0.00 0.00 0.00 87 1013.5
20260906005900 83 245 0.0 0.0 0.00 0.00 0.00 86 1013.5
20260906005400 83 243 0.0 0.9 0.00 0.00 0.00 86 1012.8
20260906004859 83 233 0.0 0.0 0.00 0.00 0.00 85 1012.8
20260906004359 83 237 0.0 0.9 0.00 0.00 0.00 85 1013.2
20260906003854 84 237 0.9 1.7 0.00 0.00 0.00 85 1013.2
20260906003349 84 255 0.9 1.7 0.00 0.00 0.00 84 1013.2
20260906002845 84 238 0.0 0.9 0.00 0.00 0.00 84 1013.2
20260906002344 84 271 0.0 0.9 0.00 0.00 0.00 83 1013.2
20260906001840 84 279 0.9 0.9 0.00 0.00 0.00 83 1012.8
20260906001335 84 268 0.9 1.7 0.00 0.00 0.00 82 1012.8
20260906000830 84 250 0.9 1.7 0.00 0.00 0.00 82 1012.5
20260906000326 84 282 0.9 0.9 0.00 0.00 0.00 82 1012.5
20260905235820 84 241 0.0 1.7 0.00 0.00 0.00 82 1012.8
20260905235320 84 230 0.0 1.7 0.00 0.00 0.00 81 1012.5
20260905234815 84 261 0.9 1.7 0.00 0.00 0.00 81 1012.8
20260905234310 85 230 1.7 1.7 0.00 0.00 0.00 81 1013.2
20260905233805 85 238 0.9 0.9 0.00 0.00 0.00 81 1012.8
20260905233306 85 211 0.0 0.0 0.00 0.00 0.00 81 1012.8
20260905232804 85 222 0.0 0.0 0.00 0.00 0.00 80 1012.8
20260905232301 85 245 0.9 2.6 0.00 0.00 0.00 80 1012.8
20260905231756 85 255 0.9 0.9 0.00 0.00 0.00 79 1012.8
20260905231251 86 233 1.7 2.6 0.00 0.00 0.00 78 1012.5
20260905230748 87 240 1.7 1.7 0.00 0.00 0.00 77 1012.8
20260905230245 86 240 0.9 1.7 0.00 0.00 0.00 77 1012.8
20260905225745 86 250 2.6 3.5 0.00 0.00 0.00 77 1012.8
20260905225240 86 224 0.9 2.6 0.00 0.00 0.00 77 1012.8
20260905224739 87 211 0.9 2.6 0.00 0.00 0.00 77 1012.8
20260905224235 87 194 0.0 3.5 0.00 0.00 0.00 76 1012.8
20260905223731 87 251 5.2 7.0 0.00 0.00 0.00 76 1013.2
20260905223228 87 265 4.3 7.0 0.00 0.00 0.00 76 1013.2
20260905222723 87 236 1.7 5.2 0.00 0.00 0.00 77 1012.8
20260905222222 87 263 6.1 7.8 0.00 0.00 0.00 76 1012.8
20260905221718 87 222 2.6 6.1 0.00 0.00 0.00 76 1012.8
20260905221215 88 261 2.6 7.0 0.00 0.00 0.00 76 1012.8
20260905220711 88 297 1.7 5.2 0.00 0.00 0.00 75 1012.8
20260905220206 89 296 2.6 7.0 0.00 0.00 0.00 75 1013.2
20260905215706 89 217 1.7 5.2 0.00 0.00 0.00 74 1012.8
20260905215202 89 234 2.6 6.1 0.00 0.00 0.00 74 1012.8
20260905214658 89 234 2.6 7.0 0.00 0.00 0.00 74 1012.8
20260905214152 89 260 3.5 3.5 0.00 0.00 0.00 74 1012.8
20260905213648 90 202 4.3 7.0 0.00 0.00 0.00 73 1012.8
20260905213143 90 292 2.6 8.7 0.00 0.00 0.00 72 1012.8
20260905212638 91 265 1.7 2.6 0.00 0.00 0.00 72 1012.8
20260905212138 90 235 0.0 3.5 0.00 0.00 0.00 73 1012.8
20260905211632 91 243 0.9 5.2 0.00 0.00 0.00 72 1012.8
20260905211128 91 229 1.7 7.0 0.00 0.00 0.00 70 1012.8
20260905210625 91 222 0.9 5.2 0.00 0.00 0.00 70 1012.8
20260905210119 92 272 1.7 2.6 0.00 0.00 0.00 69 1012.8
20260905205618 92 225 0.9 8.7 0.00 0.00 0.00 70 1012.8
20260905205118 91 203 0.9 1.7 0.00 0.00 0.00 70 1012.5
20260905204617 92 250 2.6 5.2 0.00 0.00 0.00 69 1012.8
20260905204113 92 222 3.5 5.2 0.00 0.00 0.00 69 1012.5
20260905203613 92 242 2.6 2.6 0.00 0.00 0.00 68 1012.8
20260905203108 92 221 1.7 3.5 0.00 0.00 0.00 68 1012.5
20260905202604 93 242 1.7 2.6 0.00 0.00 0.00 67 1012.8
20260905202059 93 207 0.9 5.2 0.00 0.00 0.00 66 1012.8
20260905201555 93 266 0.9 2.6 0.00 0.00 0.00 64 1012.8
20260905201054 93 230 0.0 0.9 0.00 0.00 0.00 64 1012.8
20260905200550 93 229 0.0 1.7 0.00 0.00 0.00 65 1012.8
20260905200050 92 255 0.0 1.7 0.00 0.00 0.00 64 1013.2
20260905195543 93 249 1.7 1.7 0.00 0.00 0.00 63 1013.2
20260905195039 92 250 0.9 0.9 0.00 0.00 0.00 63 1013.2
20260905194538 92 269 2.6 2.6 0.00 0.00 0.00 64 1013.5
20260905194033 92 282 4.3 5.2 0.00 0.00 0.00 64 1013.9
20260905193528 92 313 2.6 5.2 0.00 0.00 0.00 64 1013.9
20260905193023 95 263 1.7 5.2 0.00 0.00 0.00 63 1013.9
20260905192518 93 307 3.5 7.0 0.00 0.00 0.00 64 1013.9
20260905192015 95 269 4.3 6.1 0.00 0.00 0.00 62 1013.9
20260905191513 95 13 3.5 5.2 0.00 0.00 0.00 64 1014.2
20260905191012 95 223 0.9 1.7 0.00 0.00 0.00 61 1014.2
20260905190510 94 231 1.7 3.5 0.00 0.00 0.00 61 1014.2
20260905190009 94 136 0.0 5.2 0.00 0.00 0.00 62 1014.2
20260905185504 94 174 3.5 5.2 0.00 0.00 0.00 62 1014.2
20260905185003 93 189 2.6 2.6 0.00 0.00 0.00 62 1013.9
20260905184458 94 126 5.2 6.1 0.00 0.00 0.00 63 1013.9
20260905183957 93 114 3.5 5.2 0.00 0.00 0.00 67 1013.9
20260905183456 93 198 0.9 3.5 0.00 0.00 0.00 67 1013.9
20260905182951 91 122 0.9 1.7 0.00 0.00 0.00 68 1014.2
20260905182451 94 129 3.5 5.2 0.00 0.00 0.00 66 1014.5
20260905181946 93 216 1.7 3.5 0.00 0.00 0.00 67 1014.2
20260905181441 93 158 2.6 2.6 0.00 0.00 0.00 67 1014.5
20260905180940 92 270 1.7 2.6 0.00 0.00 0.00 68 1014.5
20260905180435 92 91 2.6 3.5 0.00 0.00 0.00 71 1014.9
20260905175930 91 177 1.7 5.2 0.00 0.00 0.00 71 1014.9
20260905175429 92 153 1.7 3.5 0.00 0.00 0.00 71 1014.9
20260905174925 91 237 0.9 5.2 0.00 0.00 0.00 72 1014.9
20260905174420 92 179 2.6 5.2 0.00 0.00 0.00 72 1015.2
20260905173916 91 235 1.7 2.6 0.00 0.00 0.00 72 1014.9
20260905173412 89 321 1.7 3.5 0.00 0.00 0.00 76 1014.9
20260905172907 89 275 2.6 3.5 0.00 0.00 0.00 75 1015.6
20260905172405 89 320 1.7 3.5 0.00 0.00 0.00 77 1015.2
20260905171901 90 263 2.6 5.2 0.00 0.00 0.00 77 1015.2
20260905171357 90 250 0.9 2.6 0.00 0.00 0.00 76 1015.6
20260905170854 90 209 1.7 3.5 0.00 0.00 0.00 79 1015.6
20260905170349 90 274 2.6 5.2 0.00 0.00 0.00 76 1015.6
20260905165848 90 232 0.9 2.6 0.00 0.00 0.00 77 1015.6
20260905165343 88 224 0.0 1.7 0.00 0.00 0.00 77 1015.9
20260905164838 88 316 3.5 5.2 0.00 0.00 0.00 78 1015.6
20260905164333 88 334 3.5 3.5 0.00 0.00 0.00 80 1015.9
20260905163828 88 326 1.7 2.6 0.00 0.00 0.00 78 1015.9
20260905163325 88 197 0.0 1.7 0.00 0.00 0.00 80 1016.2
20260905162820 88 225 1.7 2.6 0.00 0.00 0.00 78 1016.2
20260905162315 89 302 3.5 3.5 0.00 0.00 0.00 79 1016.2
20260905161815 89 14 1.7 2.6 0.00 0.00 0.00 78 1016.2
20260905161314 89 172 0.0 0.0 0.00 0.00 0.00 79 1016.6
20260905160812 87 188 0.0 2.6 0.00 0.00 0.00 81 1016.6
20260905160308 88 25 1.7 3.5 0.00 0.00 0.00 83 1016.2
20260905155802 86 201 0.9 2.6 0.00 0.00 0.00 82 1016.6
20260905155301 86 115 3.5 3.5 0.00 0.00 0.00 83 1016.2
20260905154801 86 134 1.7 2.6 0.00 0.00 0.00 85 1016.2
20260905154257 86 137 1.7 3.5 0.00 0.00 0.00 84 1016.2
20260905153752 86 104 0.9 1.7 0.00 0.00 0.00 82 1016.2
20260905153248 86 97 1.7 1.7 0.00 0.00 0.00 84 1016.6
20260905152743 86 219 0.9 3.5 0.00 0.00 0.00 87 1016.6
20260905152242 86 250 1.7 1.7 0.00 0.00 0.00 84 1016.6
20260905151741 86 118 2.6 2.6 0.00 0.00 0.00 84 1016.6
20260905151238 85 209 1.7 3.5 0.00 0.00 0.00 87 1016.6
20260905150737 84 263 1.7 1.7 0.00 0.00 0.00 86 1016.6
20260905150237 85 219 0.0 0.0 0.00 0.00 0.00 86 1016.6
20260905145735 84 294 0.9 2.6 0.00 0.00 0.00 88 1016.6
20260905145230 86 243 0.0 0.0 0.00 0.00 0.00 84 1016.6
20260905144729 86 227 0.0 0.9 0.00 0.00 0.00 87 1016.6
20260905144224 84 178 0.0 1.7 0.00 0.00 0.00 87 1016.6
20260905143723 83 155 1.7 2.6 0.00 0.00 0.00 89 1016.9
20260905143223 84 148 0.0 0.9 0.00 0.00 0.00 89 1016.9
20260905142721 82 135 0.9 1.7 0.00 0.00 0.00 92 1016.9
20260905142216 81 245 0.9 1.7 0.00 0.00 0.00 94 1016.9
20260905141712 80 322 0.0 1.7 0.00 0.00 0.00 94 1016.9
20260905141208 80 300 1.7 2.6 0.00 0.00 0.00 95 1017.2
20260905140703 79 219 0.0 0.9 0.00 0.00 0.00 99 1017.2
20260905140203 78 247 1.7 2.6 0.00 0.00 0.00 99 1016.9
20260905135657 77 214 0.0 0.0 0.00 0.00 0.00 99 1016.9
20260905135154 77 300 0.9 1.7 0.00 0.00 0.00 99 1016.9
20260905134652 77 221 0.0 0.9 0.00 0.00 0.00 99 1016.9
20260905134152 77 226 0.0 0.9 0.00 0.00 0.00 99 1016.9
20260905133647 76 224 0.0 0.0 0.00 0.00 0.00 99 1016.9
20260905133141 77 240 0.9 1.7 0.00 0.00 0.00 99 1016.9
20260905132641 77 252 0.9 1.7 0.00 0.00 0.00 99 1016.9
20260905132136 77 225 0.0 0.9 0.00 0.00 0.00 99 1017.2
20260905131631 77 225 0.9 1.7 0.00 0.00 0.00 99 1017.2
20260905131126 76 230 0.0 0.9 0.00 0.00 0.00 99 1017.2
20260905130621 76 196 0.9 1.7 0.00 0.00 0.00 99 1016.9
20260905130120 77 227 0.0 0.9 0.00 0.00 0.00 99 1017.2
20260905125614 76 208 0.0 1.7 0.00 0.00 0.00 99 1017.2
20260905125110 77 257 0.0 1.7 0.00 0.00 0.00 99 1016.9
20260905124607 76 229 0.0 0.0 0.00 0.00 0.00 99 1016.9
20260905124102 76 227 0.0 1.7 0.00 0.00 0.00 99 1017.2
20260905123557 76 203 0.0 1.7 0.00 0.00 0.00 99 1017.2
20260905123054 76 186 0.0 0.9 0.00 0.00 0.00 99 1016.9
20260905122554 76 135 0.0 0.9 0.00 0.00 0.00 99 1016.9
20260905122054 76 192 0.0 0.0 0.00 0.00 0.00 99 1016.6
20260905121549 76 187 0.0 0.0 0.00 0.00 0.00 99 1016.6
20260905121044 76 200 0.0 0.9 0.00 0.00 0.00 99 1016.6